createdAt,value
2022-08-17T00:00:42.758Z,3.58
2022-08-17T00:03:25.968Z,3.78
2022-08-17T00:05:29.498Z,3.10
2022-08-17T00:07:31.691Z,4.05
2022-08-17T00:09:33.385Z,3.50
2022-08-17T00:11:38.560Z,4.15
2022-08-17T00:13:44.641Z,3.42
2022-08-17T00:15:47.142Z,3.80
2022-08-17T00:17:51.012Z,4.13
2022-08-17T00:19:52.712Z,3.85
2022-08-17T00:22:34.789Z,4.43
2022-08-17T00:24:22.396Z,4.05
2022-08-17T00:26:43.477Z,3.53
2022-08-17T00:28:47.816Z,4.07
2022-08-17T00:30:52.978Z,4.25
2022-08-17T00:33:12.070Z,4.18
2022-08-17T00:35:22.266Z,4.28
2022-08-17T00:37:23.892Z,4.18
2022-08-17T00:39:25.659Z,4.18
2022-08-17T00:41:28.020Z,4.28
2022-08-17T00:43:42.310Z,4.85
2022-08-17T00:45:44.768Z,5.03
2022-08-17T00:47:47.063Z,4.45
2022-08-17T00:49:48.763Z,5.13
2022-08-17T00:51:57.510Z,4.78
2022-08-17T00:54:10.895Z,5.15
2022-08-17T00:56:26.561Z,4.70
2022-08-17T00:58:33.000Z,4.97
2022-08-17T01:00:43.815Z,5.32
2022-08-17T01:02:47.029Z,4.63
2022-08-17T01:04:51.352Z,5.80
2022-08-17T01:06:53.381Z,4.95
2022-08-17T01:08:57.270Z,5.07
2022-08-17T01:11:02.329Z,4.78
2022-08-17T01:13:04.321Z,5.63
2022-08-17T01:15:06.432Z,5.22
2022-08-17T01:17:08.999Z,4.57
2022-08-17T01:19:25.709Z,4.90
2022-08-17T01:21:34.782Z,5.13
2022-08-17T01:23:36.800Z,5.50
2022-08-17T01:25:38.839Z,4.85
2022-08-17T01:27:41.452Z,5.65
2022-08-17T01:29:50.229Z,5.05
2022-08-17T01:31:57.861Z,4.22
2022-08-17T01:34:02.522Z,4.65
2022-08-17T01:36:07.177Z,4.82
2022-08-17T01:38:09.581Z,4.88
2022-08-17T01:40:21.506Z,4.47
2022-08-17T01:42:37.336Z,5.07
2022-08-17T01:44:39.345Z,5.43
2022-08-17T01:46:41.025Z,4.30
2022-08-17T01:48:43.699Z,5.97
2022-08-17T01:50:47.263Z,4.65
2022-08-17T01:52:51.174Z,4.97
2022-08-17T01:54:53.566Z,5.68
2022-08-17T01:56:55.316Z,4.55
2022-08-17T01:58:57.271Z,5.03
2022-08-17T02:01:00.707Z,5.75
2022-08-17T02:03:03.532Z,4.95
2022-08-17T02:05:06.603Z,4.72
2022-08-17T02:07:08.215Z,4.60
2022-08-17T02:09:16.506Z,4.03
2022-08-17T02:11:20.346Z,5.20
2022-08-17T02:13:22.016Z,4.93
2022-08-17T02:15:23.783Z,4.70
2022-08-17T02:17:25.508Z,4.32
2022-08-17T02:19:27.189Z,4.88
2022-08-17T02:21:28.956Z,5.93
2022-08-17T02:23:32.867Z,4.50
2022-08-17T02:25:36.367Z,5.25
2022-08-17T02:27:38.845Z,5.15
2022-08-17T02:29:40.976Z,5.55
2022-08-17T02:31:43.858Z,5.13
2022-08-17T02:33:45.495Z,4.75
2022-08-17T02:36:03.214Z,5.38
2022-08-17T02:38:06.198Z,4.45
2022-08-17T02:40:11.269Z,4.93
2022-08-17T02:42:14.235Z,4.60
2022-08-17T02:44:39.211Z,5.50
2022-08-17T02:46:37.936Z,4.78
2022-08-17T02:48:40.063Z,4.78
2022-08-17T02:50:41.842Z,5.40
2022-08-17T02:52:45.700Z,4.90
2022-08-17T02:54:58.950Z,5.53
2022-08-17T02:57:00.650Z,6.00
2022-08-17T02:59:02.373Z,5.75
2022-08-17T03:01:06.000Z,5.63
2022-08-17T03:03:13.575Z,6.00
2022-08-17T03:05:17.943Z,5.55
2022-08-17T03:07:20.344Z,5.25
2022-08-17T03:09:22.120Z,6.03
2022-08-17T03:11:23.820Z,4.95
2022-08-17T03:13:25.596Z,5.18
2022-08-17T03:15:30.594Z,5.60
2022-08-17T03:17:32.338Z,6.05
2022-08-17T03:19:34.081Z,5.15
2022-08-17T03:21:36.190Z,4.97
2022-08-17T03:23:41.216Z,6.70
2022-08-17T03:25:44.262Z,6.10
2022-08-17T03:27:48.068Z,6.25
2022-08-17T03:29:51.961Z,5.18
2022-08-17T03:31:53.830Z,5.15
2022-08-17T03:33:56.488Z,6.13
2022-08-17T03:35:58.669Z,5.43
2022-08-17T03:38:01.371Z,5.72
2022-08-17T03:40:04.828Z,5.55
2022-08-17T03:42:32.003Z,5.53
2022-08-17T03:44:34.325Z,5.32
2022-08-17T03:46:54.579Z,5.40
2022-08-17T03:49:15.024Z,4.95
2022-08-17T03:51:39.371Z,4.95
2022-08-17T03:54:25.903Z,5.45
2022-08-17T03:56:42.443Z,5.15
2022-08-17T03:58:44.294Z,4.60
2022-08-17T04:00:46.552Z,4.70
2022-08-17T04:02:48.271Z,4.78
2022-08-17T04:04:51.198Z,5.78
2022-08-17T04:06:53.499Z,5.45
2022-08-17T04:08:55.153Z,5.35
2022-08-17T04:10:57.320Z,6.10
2022-08-17T04:12:59.030Z,4.97
2022-08-17T04:15:00.867Z,6.53
2022-08-17T04:17:02.731Z,6.85
2022-08-17T04:19:05.165Z,5.70
2022-08-17T04:21:09.263Z,5.78
2022-08-17T04:23:13.612Z,6.43
2022-08-17T04:25:18.159Z,6.13
2022-08-17T04:27:19.863Z,5.85
2022-08-17T04:29:21.678Z,5.65
2022-08-17T04:31:23.331Z,5.25
2022-08-17T04:33:27.365Z,6.38
2022-08-17T04:35:31.920Z,5.13
2022-08-17T04:37:33.880Z,6.38
2022-08-17T04:39:35.674Z,5.65
2022-08-17T04:41:56.373Z,6.93
2022-08-17T04:43:58.652Z,5.80
2022-08-17T04:46:06.398Z,6.53
2022-08-17T04:48:08.123Z,5.53
2022-08-17T04:50:10.019Z,6.68
2022-08-17T04:52:42.700Z,5.97
2022-08-17T04:54:36.620Z,5.97
2022-08-17T04:56:38.730Z,5.85
2022-08-17T04:58:40.626Z,6.72
2022-08-17T05:00:42.612Z,6.28
2022-08-17T05:02:49.800Z,5.53
2022-08-17T05:04:52.482Z,5.70
2022-08-17T05:06:57.054Z,5.20
2022-08-17T05:08:59.269Z,5.82
2022-08-17T05:11:01.007Z,6.38
2022-08-17T05:13:07.036Z,6.72
2022-08-17T05:15:16.443Z,6.25
2022-08-17T05:17:18.095Z,6.53
2022-08-17T05:19:19.873Z,5.90
2022-08-17T05:21:22.980Z,7.28
2022-08-17T05:23:27.160Z,7.05
2022-08-17T05:25:46.757Z,7.05
2022-08-17T05:27:49.461Z,7.15
2022-08-17T05:29:52.278Z,6.60
2022-08-17T05:31:54.348Z,7.72
2022-08-17T05:33:56.232Z,6.65
2022-08-17T05:35:59.295Z,6.88
2022-08-17T05:38:01.732Z,6.47
2022-08-17T05:40:04.228Z,6.53
2022-08-17T05:42:06.391Z,6.88
2022-08-17T05:44:08.061Z,6.80
2022-08-17T05:46:32.204Z,6.05
2022-08-17T05:48:58.227Z,5.97
2022-08-17T05:51:05.394Z,5.95
2022-08-17T05:53:41.549Z,6.55
2022-08-17T05:56:10.881Z,5.22
2022-08-17T05:58:42.843Z,6.03
2022-08-17T06:00:50.819Z,7.63
2022-08-17T06:03:11.546Z,5.85
2022-08-17T06:05:37.419Z,6.00
2022-08-17T06:08:10.140Z,6.32
2022-08-17T06:10:54.225Z,5.85
2022-08-17T06:13:17.512Z,6.68
2022-08-17T06:15:44.867Z,6.97
2022-08-17T06:17:46.739Z,6.22
2022-08-17T06:20:00.739Z,6.80
2022-08-17T06:22:03.359Z,6.65
2022-08-17T06:24:31.481Z,6.20
2022-08-17T06:26:41.091Z,7.00
2022-08-17T06:29:18.551Z,8.13
2022-08-17T06:31:29.310Z,6.25
2022-08-17T06:33:34.675Z,7.25
2022-08-17T06:35:46.514Z,7.13
2022-08-17T06:38:09.632Z,5.78
2022-08-17T06:40:45.937Z,7.20
2022-08-17T06:43:05.616Z,6.35
2022-08-17T06:45:31.330Z,6.38
2022-08-17T06:47:51.865Z,7.03
2022-08-17T06:50:21.407Z,6.40
2022-08-17T06:52:45.696Z,6.15
2022-08-17T06:55:18.139Z,6.78
2022-08-17T06:57:21.333Z,6.40
2022-08-17T06:59:55.903Z,7.47
2022-08-17T07:02:05.275Z,7.43
2022-08-17T07:04:21.988Z,6.88
2022-08-17T07:06:37.957Z,7.10
2022-08-17T07:09:25.612Z,7.97
2022-08-17T07:11:35.229Z,7.45
2022-08-17T07:13:53.070Z,7.50
2022-08-17T07:16:00.353Z,6.55
2022-08-17T07:18:06.465Z,7.68
2022-08-17T07:20:13.082Z,6.70
2022-08-17T07:22:57.371Z,7.43
2022-08-17T07:25:04.353Z,7.07
2022-08-17T07:27:18.184Z,7.03
2022-08-17T07:29:19.942Z,7.45
2022-08-17T07:31:23.742Z,8.20
2022-08-17T07:33:29.680Z,7.32
2022-08-17T07:35:43.841Z,6.53
2022-08-17T07:37:55.681Z,7.57
2022-08-17T07:40:15.179Z,7.30
2022-08-17T07:42:21.797Z,6.88
2022-08-17T07:44:24.437Z,6.85
2022-08-17T07:46:51.360Z,7.50
2022-08-17T07:49:18.695Z,6.80
2022-08-17T07:51:44.280Z,6.43
2022-08-17T07:53:46.592Z,6.50
2022-08-17T07:55:49.125Z,7.20
2022-08-17T07:57:57.987Z,6.78
2022-08-17T07:59:59.494Z,6.85
2022-08-17T08:02:31.669Z,5.90
2022-08-17T08:07:01.494Z,6.13
2022-08-17T08:09:03.083Z,7.68
2022-08-17T08:11:15.353Z,7.68
2022-08-17T08:13:25.225Z,6.30
2022-08-17T08:15:54.651Z,7.22
2022-08-17T08:18:03.042Z,6.65
2022-08-17T08:20:42.515Z,6.68
2022-08-17T08:22:43.405Z,6.78
2022-08-17T08:25:10.122Z,6.10
2022-08-17T08:27:27.064Z,6.28
2022-08-17T08:30:14.166Z,5.95
2022-08-17T08:32:48.591Z,6.20
2022-08-17T08:35:09.472Z,7.20
2022-08-17T08:37:33.919Z,5.47
2022-08-17T08:39:45.237Z,5.70
2022-08-17T08:42:16.862Z,5.97
2022-08-17T08:45:00.415Z,5.97
2022-08-17T08:47:19.269Z,5.10
2022-08-17T08:50:07.128Z,5.57
2022-08-17T08:52:34.671Z,5.78
2022-08-17T08:54:47.618Z,4.57
2022-08-17T08:59:42.082Z,4.22
2022-08-17T09:02:14.624Z,4.88
2022-08-17T09:05:02.673Z,5.13
2022-08-17T09:07:02.986Z,4.43
2022-08-17T09:09:17.335Z,4.28
2022-08-17T09:12:02.392Z,3.38
2022-08-17T09:14:21.310Z,4.47
2022-08-17T09:16:31.036Z,3.78
2022-08-17T09:19:02.608Z,4.15
2022-08-17T09:20:59.751Z,3.92
2022-08-17T09:23:15.619Z,4.20
2022-08-17T09:25:21.961Z,4.45
2022-08-17T09:27:48.389Z,3.85
2022-08-17T09:29:59.976Z,4.28
2022-08-17T09:32:08.929Z,4.40
2022-08-17T09:34:16.938Z,4.05
2022-08-17T09:36:41.384Z,3.90
2022-08-17T09:39:03.555Z,4.40
2022-08-17T09:41:30.312Z,3.83
2022-08-17T09:43:49.738Z,3.90
2022-08-17T09:46:04.457Z,3.85
2022-08-17T09:48:15.169Z,3.92
2022-08-17T09:51:05.073Z,4.75
2022-08-17T09:52:46.180Z,3.42
2022-08-17T09:54:48.839Z,4.07
2022-08-17T09:57:29.303Z,3.40
2022-08-17T09:59:50.326Z,4.30
2022-08-17T10:01:56.869Z,4.00
2022-08-17T10:04:05.080Z,3.80
2022-08-17T10:06:08.340Z,3.75
2022-08-17T10:08:37.333Z,3.00
2022-08-17T10:11:00.090Z,4.07
2022-08-17T10:13:18.267Z,3.70
2022-08-17T10:15:26.332Z,3.13
2022-08-17T10:17:47.542Z,3.22
2022-08-17T10:19:52.623Z,4.22
2022-08-17T10:22:33.024Z,3.58
2022-08-17T10:25:21.360Z,3.42
2022-08-17T10:27:24.333Z,3.05
2022-08-17T10:29:49.035Z,2.63
2022-08-17T10:32:09.251Z,2.50
2022-08-17T10:34:25.297Z,2.90
2022-08-17T10:36:46.107Z,3.13
2022-08-17T10:38:50.123Z,2.47
2022-08-17T10:40:57.748Z,2.95
2022-08-17T10:43:10.874Z,2.75
2022-08-17T10:45:26.395Z,2.80
2022-08-17T10:48:04.703Z,2.85
2022-08-17T10:50:44.485Z,2.80
2022-08-17T10:52:48.620Z,3.17
2022-08-17T10:54:58.614Z,3.00
2022-08-17T10:57:00.685Z,2.50
2022-08-17T10:59:02.362Z,3.05
2022-08-17T11:01:04.567Z,2.95
2022-08-17T11:03:18.932Z,2.97
2022-08-17T11:05:42.945Z,2.88
2022-08-17T11:07:58.606Z,3.33
2022-08-17T11:10:09.110Z,3.08
2022-08-17T11:12:13.754Z,2.63
2022-08-17T11:14:34.909Z,1.95
2022-08-17T11:17:04.233Z,2.60
2022-08-17T11:19:24.329Z,2.13
2022-08-17T11:21:35.019Z,2.00
2022-08-17T11:23:53.072Z,2.30
2022-08-17T11:25:56.956Z,2.58
2022-08-17T11:28:18.031Z,2.40
2022-08-17T11:30:48.550Z,2.22
2022-08-17T11:32:54.570Z,2.40
2022-08-17T11:35:20.872Z,2.08
2022-08-17T11:37:46.033Z,2.08
2022-08-17T11:40:18.626Z,2.22
2022-08-17T11:42:36.317Z,2.35
2022-08-17T11:44:37.914Z,2.38
2022-08-17T11:47:18.235Z,2.30
2022-08-17T11:49:47.741Z,2.15
2022-08-17T11:51:55.515Z,2.05
2022-08-17T11:56:32.137Z,2.20
2022-08-17T11:58:40.715Z,1.90
2022-08-17T12:00:45.415Z,2.55
2022-08-17T12:02:48.855Z,2.22
2022-08-17T12:05:21.100Z,2.08
2022-08-17T12:07:23.263Z,2.08
2022-08-17T12:09:30.263Z,2.40
2022-08-17T12:11:55.382Z,1.85
2022-08-17T12:14:00.756Z,2.15
2022-08-17T12:16:02.533Z,2.17
2022-08-17T12:18:06.829Z,2.25
2022-08-17T12:20:32.433Z,2.13
2022-08-17T12:22:53.423Z,1.80
2022-08-17T12:25:08.279Z,1.58
2022-08-17T12:27:11.115Z,2.50
2022-08-17T12:29:18.301Z,2.00
2022-08-17T12:31:44.304Z,1.98
2022-08-17T12:33:46.710Z,2.17
2022-08-17T12:35:48.409Z,1.88
2022-08-17T12:37:57.626Z,2.00
2022-08-17T12:40:08.531Z,1.95
2022-08-17T12:42:22.150Z,2.25
2022-08-17T12:44:34.249Z,1.90
2022-08-17T12:46:55.604Z,1.98
2022-08-17T12:49:16.378Z,2.00
2022-08-17T12:51:18.312Z,2.00
2022-08-17T12:53:22.446Z,2.22
2022-08-17T12:55:25.574Z,2.10
2022-08-17T12:57:39.490Z,1.77
2022-08-17T12:59:45.480Z,2.35
2022-08-17T13:01:47.093Z,2.03
2022-08-17T13:03:51.484Z,2.03
2022-08-17T13:05:52.929Z,1.70
2022-08-17T13:07:56.562Z,1.60
2022-08-17T13:09:58.806Z,2.85
2022-08-17T13:12:00.442Z,1.90
2022-08-17T13:14:09.486Z,1.50
2022-08-17T13:16:17.266Z,1.77
2022-08-17T13:18:39.148Z,2.22
2022-08-17T13:20:41.282Z,1.58
2022-08-17T13:22:44.424Z,1.90
2022-08-17T13:24:53.053Z,2.28
2022-08-17T13:27:08.107Z,1.60
2022-08-17T13:29:23.975Z,2.38
2022-08-17T13:31:27.878Z,1.70
2022-08-17T13:33:43.314Z,2.08
2022-08-17T13:35:50.260Z,1.20
2022-08-17T13:38:13.209Z,1.40
2022-08-17T13:40:14.722Z,1.50
2022-08-17T13:42:29.740Z,1.23
2022-08-17T13:44:39.152Z,1.75
2022-08-17T13:46:52.495Z,1.60
2022-08-17T13:49:03.596Z,1.50
2022-08-17T13:51:12.651Z,1.65
2022-08-17T13:53:18.316Z,2.00
2022-08-17T13:55:21.888Z,1.80
2022-08-17T13:57:25.166Z,1.35
2022-08-17T13:59:52.618Z,1.55
2022-08-17T14:01:54.551Z,1.45
2022-08-17T14:03:57.333Z,2.95
2022-08-17T14:05:58.894Z,1.60
2022-08-17T14:08:02.419Z,1.65
2022-08-17T14:10:12.779Z,1.88
2022-08-17T14:12:17.359Z,1.83
2022-08-17T14:14:18.925Z,1.73
2022-08-17T14:16:20.645Z,2.22
2022-08-17T14:18:50.543Z,1.98
2022-08-17T14:20:44.251Z,2.05
2022-08-17T14:22:50.761Z,1.73
2022-08-17T14:24:52.560Z,1.60
2022-08-17T14:26:54.334Z,1.63
2022-08-17T14:28:56.740Z,1.55
2022-08-17T14:30:58.719Z,1.63
2022-08-17T14:33:02.094Z,1.92
2022-08-17T14:35:05.981Z,1.80
2022-08-17T14:37:07.537Z,1.92
2022-08-17T14:39:10.218Z,1.77
2022-08-17T14:41:20.057Z,2.22
2022-08-17T14:43:23.628Z,1.58
2022-08-17T14:45:30.250Z,1.80
2022-08-17T14:47:35.760Z,1.77
2022-08-17T14:49:37.279Z,1.90
2022-08-17T14:51:43.912Z,1.92
2022-08-17T14:53:46.137Z,2.10
2022-08-17T14:55:50.659Z,2.28
2022-08-17T14:57:52.385Z,1.27
2022-08-17T14:59:55.556Z,2.17
2022-08-17T15:01:58.138Z,2.35
2022-08-17T15:04:00.895Z,1.65
2022-08-17T15:06:02.821Z,1.65
2022-08-17T15:08:05.578Z,1.42
2022-08-17T15:10:08.929Z,1.70
2022-08-17T15:12:16.767Z,1.77
2022-08-17T15:14:18.268Z,1.42
2022-08-17T15:16:20.504Z,1.77
2022-08-17T15:18:22.622Z,2.42
2022-08-17T15:20:28.228Z,2.33
2022-08-17T15:22:29.837Z,1.75
2022-08-17T15:24:31.353Z,2.15
2022-08-17T15:26:33.205Z,2.08
2022-08-17T15:28:34.803Z,2.00
2022-08-17T15:30:36.367Z,1.88
2022-08-17T15:32:39.547Z,1.92
2022-08-17T15:34:41.062Z,1.80
2022-08-17T15:36:47.931Z,1.98
2022-08-17T15:38:51.172Z,1.95
2022-08-17T15:40:53.899Z,2.05
2022-08-17T15:42:55.514Z,2.22
2022-08-17T15:44:57.424Z,2.17
2022-08-17T15:46:59.076Z,2.83
2022-08-17T15:49:00.577Z,2.00
2022-08-17T15:51:02.106Z,2.30
2022-08-17T15:53:04.861Z,2.85
2022-08-17T15:55:09.944Z,2.00
2022-08-17T15:57:11.498Z,2.13
2022-08-17T15:59:13.054Z,2.30
2022-08-17T16:01:40.512Z,2.38
2022-08-17T16:04:02.224Z,2.22
2022-08-17T16:06:01.948Z,2.13
2022-08-17T16:08:03.829Z,1.88
2022-08-17T16:10:07.719Z,2.03
2022-08-17T16:12:14.939Z,2.78
2022-08-17T16:14:16.941Z,1.90
2022-08-17T16:16:18.457Z,1.90
2022-08-17T16:18:20.574Z,2.30
2022-08-17T16:20:22.122Z,2.45
2022-08-17T16:22:36.459Z,2.40
2022-08-17T16:24:44.621Z,2.00
2022-08-17T16:26:48.846Z,2.00
2022-08-17T16:28:50.799Z,2.33
2022-08-17T16:30:52.302Z,2.30
2022-08-17T16:32:55.223Z,2.05
2022-08-17T16:35:01.505Z,2.50
2022-08-17T16:37:03.046Z,2.60
2022-08-17T16:39:04.924Z,2.25
2022-08-17T16:41:06.601Z,2.80
2022-08-17T16:43:12.110Z,2.25
2022-08-17T16:45:16.910Z,1.90
2022-08-17T16:47:19.439Z,2.22
2022-08-17T16:49:36.310Z,2.70
2022-08-17T16:51:39.585Z,2.17
2022-08-17T16:53:43.466Z,2.25
2022-08-17T16:55:46.783Z,2.38
2022-08-17T16:57:50.265Z,2.47
2022-08-17T16:59:53.547Z,2.25
2022-08-17T17:02:05.072Z,2.50
2022-08-17T17:04:09.210Z,2.60
2022-08-17T17:06:24.684Z,2.55
2022-08-17T17:08:44.755Z,2.30
2022-08-17T17:10:49.378Z,2.47
2022-08-17T17:13:01.318Z,2.42
2022-08-17T17:15:06.901Z,2.38
2022-08-17T17:17:29.390Z,2.10
2022-08-17T17:19:53.991Z,2.35
2022-08-17T17:22:08.869Z,2.63
2022-08-17T17:24:14.628Z,2.83
2022-08-17T17:26:35.313Z,2.83
2022-08-17T17:28:42.792Z,3.10
2022-08-17T17:30:51.865Z,3.00
2022-08-17T17:33:04.041Z,2.83
2022-08-17T17:35:12.305Z,3.05
2022-08-17T17:37:20.737Z,3.67
2022-08-17T17:39:37.011Z,3.40
2022-08-17T17:41:52.181Z,2.72
2022-08-17T17:44:03.164Z,3.40
2022-08-17T17:46:27.522Z,3.25
2022-08-17T17:48:30.711Z,3.08
2022-08-17T17:50:36.588Z,3.53
2022-08-17T17:52:52.474Z,3.50
2022-08-17T17:55:35.362Z,3.33
2022-08-17T17:57:57.920Z,3.40
2022-08-17T18:00:15.887Z,3.50
2022-08-17T18:02:39.904Z,2.72
2022-08-17T18:05:02.264Z,4.53
2022-08-17T18:07:24.639Z,3.67
2022-08-17T18:09:51.791Z,2.88
2022-08-17T18:12:19.880Z,4.28
2022-08-17T18:15:03.530Z,3.25
2022-08-17T18:17:06.403Z,3.10
2022-08-17T18:19:12.062Z,3.58
2022-08-17T18:21:20.537Z,3.67
2022-08-17T18:23:27.067Z,3.13
2022-08-17T18:25:45.454Z,3.60
2022-08-17T18:27:51.649Z,3.53
2022-08-17T18:29:58.129Z,3.03
2022-08-17T18:32:19.403Z,3.80
2022-08-17T18:36:47.915Z,3.90
2022-08-17T18:38:50.247Z,3.75
2022-08-17T18:41:05.362Z,3.75
2022-08-17T18:43:24.734Z,3.25
2022-08-17T18:45:38.129Z,3.17
2022-08-17T18:48:00.144Z,3.08
2022-08-17T18:50:35.648Z,3.40
2022-08-17T18:52:37.169Z,3.28
2022-08-17T18:54:38.824Z,3.40
2022-08-17T18:56:42.991Z,3.13
2022-08-17T18:58:51.497Z,3.42
2022-08-17T19:00:53.735Z,3.75
2022-08-17T19:02:58.079Z,4.03
2022-08-17T19:05:06.217Z,3.20
2022-08-17T19:07:10.259Z,3.00
2022-08-17T19:09:32.627Z,3.10
2022-08-17T19:11:34.907Z,3.55
2022-08-17T19:13:52.503Z,3.53
2022-08-17T19:16:14.196Z,3.05
2022-08-17T19:18:37.170Z,3.42
2022-08-17T19:20:47.089Z,3.90
2022-08-17T19:22:58.159Z,3.13
2022-08-17T19:25:12.015Z,3.45
2022-08-17T19:27:41.942Z,3.72
2022-08-17T19:29:56.440Z,3.20
2022-08-17T19:31:58.808Z,3.45
2022-08-17T19:34:01.252Z,2.88
2022-08-17T19:36:10.423Z,3.58
2022-08-17T19:38:22.022Z,3.22
2022-08-17T19:40:58.529Z,2.95
2022-08-17T19:43:23.401Z,3.03
2022-08-17T19:45:48.712Z,4.85
2022-08-17T19:48:03.296Z,3.15
2022-08-17T19:50:12.412Z,3.05
2022-08-17T19:52:37.440Z,3.55
2022-08-17T19:54:47.989Z,3.58
2022-08-17T19:57:01.622Z,3.22
2022-08-17T19:59:07.917Z,3.30
2022-08-17T20:01:12.762Z,3.28
2022-08-17T20:03:24.672Z,3.60
2022-08-17T20:05:34.719Z,3.08
2022-08-17T20:08:08.430Z,3.70
2022-08-17T20:10:18.748Z,3.92
2022-08-17T20:12:24.102Z,3.65
2022-08-17T20:14:36.707Z,3.95
2022-08-17T20:16:38.381Z,4.63
2022-08-17T20:18:47.531Z,5.57
2022-08-17T20:21:02.955Z,5.63
2022-08-17T20:23:09.817Z,6.88
2022-08-17T20:25:18.211Z,8.23
2022-08-17T20:27:35.423Z,6.57
2022-08-17T20:29:55.306Z,5.15
2022-08-17T20:31:56.773Z,5.50
2022-08-17T20:34:24.034Z,5.50
2022-08-17T20:36:36.885Z,5.20
2022-08-17T20:38:50.434Z,5.45
2022-08-17T20:40:54.947Z,4.50
2022-08-17T20:42:58.814Z,4.22
2022-08-17T20:45:05.572Z,4.63
2022-08-17T20:47:16.816Z,3.95
2022-08-17T20:49:27.274Z,4.50
2022-08-17T20:52:00.739Z,3.42
2022-08-17T20:54:27.379Z,3.75
2022-08-17T20:56:43.807Z,3.65
2022-08-17T20:58:47.216Z,4.30
2022-08-17T21:00:51.634Z,3.70
2022-08-17T21:03:22.545Z,3.45
2022-08-17T21:05:57.207Z,4.55
2022-08-17T21:08:13.277Z,3.85
2022-08-17T21:10:17.697Z,4.18
2022-08-17T21:12:43.065Z,4.35
2022-08-17T21:14:58.626Z,3.78
2022-08-17T21:17:30.063Z,3.67
2022-08-17T21:19:34.992Z,3.92
2022-08-17T21:22:12.215Z,3.65
2022-08-17T21:24:35.685Z,3.85
2022-08-17T21:26:53.956Z,4.70
2022-08-17T21:29:29.975Z,3.70
2022-08-17T21:31:40.408Z,4.32
2022-08-17T21:34:17.494Z,4.50
2022-08-17T21:36:25.578Z,4.20
2022-08-17T21:38:43.984Z,4.18
2022-08-17T21:40:50.081Z,3.72
2022-08-17T21:42:55.531Z,4.45
2022-08-17T21:45:04.351Z,3.83
2022-08-17T21:47:24.631Z,4.07
2022-08-17T21:49:27.664Z,4.07
2022-08-17T21:51:30.800Z,3.85
2022-08-17T21:53:52.299Z,4.85
2022-08-17T21:55:54.069Z,4.30
2022-08-17T21:58:13.718Z,4.15
2022-08-17T22:00:26.027Z,4.95
2022-08-17T22:02:32.727Z,4.32
2022-08-17T22:04:41.185Z,4.28
2022-08-17T22:06:52.254Z,3.90
2022-08-17T22:09:16.325Z,4.28
2022-08-17T22:11:18.554Z,4.45
2022-08-17T22:13:24.362Z,4.30
2022-08-17T22:15:31.353Z,4.40
2022-08-17T22:17:40.086Z,4.95
2022-08-17T22:19:50.566Z,4.60
2022-08-17T22:22:05.951Z,4.72
2022-08-17T22:24:21.435Z,4.43
2022-08-17T22:26:24.738Z,4.30
2022-08-17T22:28:56.598Z,4.75
2022-08-17T22:31:01.572Z,4.68
2022-08-17T22:33:42.324Z,4.00
2022-08-17T22:35:45.430Z,5.03
2022-08-17T22:37:47.562Z,4.32
2022-08-17T22:39:58.337Z,4.95
2022-08-17T22:42:00.896Z,4.50
2022-08-17T22:44:12.245Z,4.72
2022-08-17T22:46:15.219Z,4.65
2022-08-17T22:48:22.462Z,3.70
2022-08-17T22:50:30.951Z,4.60
2022-08-17T22:52:35.688Z,4.30
2022-08-17T22:54:55.565Z,5.20
2022-08-17T22:57:20.139Z,3.65
2022-08-17T22:59:48.820Z,4.28
2022-08-17T23:02:13.952Z,4.78
2022-08-17T23:04:31.811Z,4.80
2022-08-17T23:06:34.872Z,4.65
2022-08-17T23:08:54.516Z,4.15
2022-08-17T23:10:56.546Z,4.85
2022-08-17T23:12:59.860Z,5.38
2022-08-17T23:15:02.663Z,5.15
2022-08-17T23:17:04.408Z,5.13
2022-08-17T23:19:07.492Z,4.40
2022-08-17T23:21:09.002Z,5.47
2022-08-17T23:23:15.171Z,5.43
2022-08-17T23:25:29.815Z,4.60
2022-08-17T23:27:31.838Z,4.80
2022-08-17T23:29:34.641Z,5.15
2022-08-17T23:31:38.538Z,4.85
2022-08-17T23:33:40.317Z,5.13
2022-08-17T23:35:42.857Z,5.30
2022-08-17T23:37:44.421Z,5.18
2022-08-17T23:39:46.429Z,5.80
2022-08-17T23:41:48.587Z,4.75
2022-08-17T23:43:52.181Z,4.88
2022-08-17T23:45:54.840Z,5.13
2022-08-17T23:47:56.407Z,4.43
2022-08-17T23:49:57.921Z,5.13
2022-08-17T23:52:05.362Z,5.18
2022-08-17T23:54:19.493Z,4.07
2022-08-17T23:56:26.124Z,4.82
2022-08-17T23:58:28.695Z,4.53
